»·PEaware :: AAL60 KDFW-KMIA

AAL60 :: KDFW-KMIA

FLIGHT INFORMATION

Flight Status: Arrived
Operator:
American Airlines
More flights by this operator :: More flights under this callsign
Pilot: Drew L. (13237)
Aircraft: Unknown
(B77W)
More flights by this aircraft type
Origin: KDFW Dallas-Ft Worth Intl
United States
Destination: KMIA Miami Intl
United States
More flights between these airports :: More routes between these airports
Route: KUSSO5 ZALEA SWB HRV Q105 BLVNS Q102 BAGGS SSCOT4
File this flight plan on PilotEdge
Remarks: PBN / A1B1C1D1L1O1S2 DOF / 180325 REG / N721AN EET / KZHU0027 KZJX0103 KZMA0120 SEL / ALGN OPR / AAL PER / D RMK / TCAS SIMBRIEF
Altitude:
(Current/Filed)
39,000ft
Speed:
(Current/Filed)
470kts
Departed: 24-Mar-18 06:08 PM
Arrived: 24-Mar-18 08:12 PM
Distance/Time
Traveled:
973nm/2:04
Distance/Time
To Go:
Arrived

Flight Plot

Page will automatically refresh every two minutes.

Flight plan parsing failed; only flown route is shown


Map Options




Map Legend


Flown Route
Filed Route
Departure Airport
Arrival Airport
Navaid (VOR, NDB)
Fix

Horizontal Profiles

Position Reports

Time Latitude Longitude Heading Altitude Ground
Speed
24-Mar-18 17:37 32.899983 -97.045824 135 620ft 0kts
24-Mar-18 17:38 32.899983 -97.045824 135 620ft 0kts
24-Mar-18 17:39 32.899983 -97.045824 135 621ft 0kts
24-Mar-18 17:40 32.899983 -97.045824 135 621ft 0kts
24-Mar-18 17:41 32.899983 -97.045824 135 621ft 0kts
24-Mar-18 17:42 32.899983 -97.045824 135 621ft 0kts
24-Mar-18 17:43 32.899983 -97.045824 135 621ft 0kts
24-Mar-18 17:44 32.899983 -97.045824 135 621ft 0kts
24-Mar-18 17:45 32.899983 -97.045824 135 621ft 0kts
24-Mar-18 17:46 32.899983 -97.045824 135 621ft 0kts
24-Mar-18 17:47 32.899983 -97.045824 135 621ft 0kts
24-Mar-18 17:48 32.899983 -97.045824 135 621ft 0kts
24-Mar-18 17:49 32.899983 -97.045824 135 621ft 0kts
24-Mar-18 17:50 32.899983 -97.045824 135 621ft 0kts
24-Mar-18 17:51 32.899983 -97.045824 135 621ft 0kts
24-Mar-18 17:52 32.899983 -97.045824 135 621ft 0kts
24-Mar-18 17:53 32.899983 -97.045824 135 621ft 0kts
24-Mar-18 17:54 32.899983 -97.045824 135 621ft 0kts
24-Mar-18 17:55 32.899983 -97.045824 135 621ft 0kts
24-Mar-18 17:56 32.900159 -97.046052 121 621ft 2kts
24-Mar-18 17:57 32.900259 -97.046537 31 621ft 2kts
24-Mar-18 17:58 32.899888 -97.046583 0 621ft 0kts
24-Mar-18 17:59 32.899888 -97.046583 0 621ft 0kts
24-Mar-18 18:00 32.899888 -97.046583 0 621ft 0kts
24-Mar-18 18:01 32.899888 -97.046583 0 621ft 0kts
24-Mar-18 18:02 32.901668 -97.047500 347 621ft 21kts
24-Mar-18 18:03 32.906330 -97.047538 0 621ft 14kts
24-Mar-18 18:04 32.912506 -97.047872 1 621ft 31kts
24-Mar-18 18:05 32.915678 -97.049713 269 621ft 16kts
24-Mar-18 18:06 32.915191 -97.050688 180 621ft 4kts
24-Mar-18 18:07 32.881249 -97.051122 181 1527ft 203kts
24-Mar-18 18:08 32.817322 -97.051319 180 2445ft 239kts
24-Mar-18 18:09 32.763718 -97.010623 104 4989ft 274kts
24-Mar-18 18:10 32.754367 -96.916572 96 8501ft 297kts
24-Mar-18 18:11 32.744162 -96.812327 96 11033ft 352kts
24-Mar-18 18:12 32.731655 -96.683069 96 13380ft 423kts
24-Mar-18 18:13 32.717540 -96.538965 97 16745ft 452kts
24-Mar-18 18:14 32.702141 -96.386652 97 19900ft 477kts
24-Mar-18 18:15 32.689087 -96.225843 93 22655ft 499kts
24-Mar-18 18:16 32.678756 -96.058285 94 25064ft 521kts
24-Mar-18 18:17 32.666641 -95.883750 94 27161ft 542kts
24-Mar-18 18:18 32.653845 -95.702251 94 29043ft 560kts
24-Mar-18 18:19 32.640308 -95.515868 94 30830ft 569kts
24-Mar-18 18:20 32.627047 -95.329081 93 32882ft 566kts
24-Mar-18 18:21 32.613459 -95.143544 93 34578ft 564kts
24-Mar-18 18:22 32.599675 -94.958783 93 36076ft 562kts
24-Mar-18 18:23 32.583489 -94.774280 99 36936ft 562kts
24-Mar-18 18:24 32.537004 -94.597952 110 36937ft 562kts
24-Mar-18 18:25 32.485587 -94.423413 108 36951ft 562kts
24-Mar-18 18:26 32.435811 -94.247341 108 36958ft 563kts
24-Mar-18 18:27 32.385568 -94.071901 108 36950ft 564kts
24-Mar-18 18:28 32.334849 -93.896058 108 36943ft 564kts
24-Mar-18 18:29 32.284328 -93.720905 109 36941ft 564kts
24-Mar-18 18:30 32.233081 -93.546114 109 36949ft 564kts
24-Mar-18 18:31 32.181283 -93.371003 109 36958ft 563kts
24-Mar-18 18:32 32.129211 -93.196854 109 36983ft 564kts
24-Mar-18 18:33 32.077179 -93.022059 108 36986ft 563kts
24-Mar-18 18:34 32.025086 -92.848066 109 36992ft 564kts
24-Mar-18 18:35 31.968834 -92.676060 118 36988ft 564kts
24-Mar-18 18:36 31.886934 -92.558164 138 36994ft 556kts
24-Mar-18 18:37 31.780052 -92.426480 136 36995ft 558kts
24-Mar-18 18:38 31.658166 -92.268471 135 36995ft 558kts
24-Mar-18 18:39 31.553781 -92.133799 136 37001ft 558kts
24-Mar-18 18:40 31.466324 -92.021447 136 37003ft 558kts
24-Mar-18 18:41 31.361735 -91.887540 136 37005ft 558kts
24-Mar-18 18:42 31.239454 -91.731585 136 37018ft 558kts
24-Mar-18 18:43 31.151775 -91.620156 136 37023ft 557kts
24-Mar-18 18:44 31.046753 -91.487111 136 37029ft 558kts
24-Mar-18 18:45 30.941614 -91.354388 136 37037ft 558kts
24-Mar-18 18:46 30.835992 -91.221520 136 37041ft 557kts
24-Mar-18 18:47 30.730647 -91.089457 136 37048ft 557kts
24-Mar-18 18:48 30.624797 -90.957221 136 37049ft 557kts
24-Mar-18 18:49 30.519230 -90.825792 136 37051ft 557kts
24-Mar-18 18:50 30.413566 -90.694686 136 37058ft 557kts
24-Mar-18 18:51 30.307423 -90.563434 136 37061ft 556kts
24-Mar-18 18:52 30.201685 -90.433128 136 37064ft 556kts
24-Mar-18 18:53 30.095874 -90.303155 136 37068ft 555kts
24-Mar-18 18:54 29.989768 -90.172948 136 37069ft 555kts
24-Mar-18 18:55 29.883538 -90.043578 136 38088ft 554kts
24-Mar-18 18:56 29.781576 -89.909617 131 39038ft 557kts
24-Mar-18 18:57 29.681968 -89.773696 132 39075ft 555kts
24-Mar-18 18:58 29.581991 -89.638381 132 39083ft 555kts
24-Mar-18 18:59 29.481645 -89.503044 132 39093ft 556kts
24-Mar-18 19:00 29.381773 -89.367825 132 39099ft 556kts
24-Mar-18 19:01 29.281593 -89.233146 132 39100ft 555kts
24-Mar-18 19:02 29.180942 -89.098338 132 39102ft 556kts
24-Mar-18 19:03 29.080474 -88.964079 131 39106ft 556kts
24-Mar-18 19:04 28.979537 -88.829698 132 39108ft 555kts
24-Mar-18 19:05 28.878807 -88.696271 131 39113ft 556kts
24-Mar-18 19:06 28.778679 -88.562181 131 39114ft 556kts
24-Mar-18 19:07 28.678067 -88.427885 131 39114ft 556kts
24-Mar-18 19:08 28.577992 -88.293820 131 39112ft 556kts
24-Mar-18 19:09 28.477722 -88.160469 131 39112ft 556kts
24-Mar-18 19:10 28.381054 -88.023217 119 39109ft 556kts
24-Mar-18 19:11 28.339291 -87.857474 97 39111ft 548kts
24-Mar-18 19:12 28.305492 -87.688208 100 39105ft 549kts
24-Mar-18 19:13 28.268456 -87.520077 100 39103ft 550kts
24-Mar-18 19:14 28.230968 -87.352113 100 39104ft 549kts
24-Mar-18 19:15 28.193100 -87.183945 100 39105ft 549kts
24-Mar-18 19:16 28.155158 -87.016483 100 39107ft 549kts
24-Mar-18 19:17 28.117084 -86.849455 100 39107ft 548kts
24-Mar-18 19:18 28.078710 -86.682128 100 39117ft 547kts
24-Mar-18 19:19 28.040338 -86.515812 100 39119ft 546kts
24-Mar-18 19:20 28.001672 -86.349202 100 39124ft 545kts
24-Mar-18 19:21 27.963026 -86.183661 100 39127ft 545kts
24-Mar-18 19:22 27.924178 -86.018221 100 39127ft 545kts
24-Mar-18 19:23 27.885009 -85.852377 101 39130ft 545kts
24-Mar-18 19:24 27.845757 -85.687142 101 39132ft 545kts
24-Mar-18 19:25 27.806217 -85.521644 101 39141ft 544kts
24-Mar-18 19:26 27.766658 -85.357000 101 39142ft 544kts
24-Mar-18 19:27 27.726957 -85.192699 101 39143ft 543kts
24-Mar-18 19:28 27.686944 -85.028033 101 39144ft 542kts
24-Mar-18 19:29 27.646940 -84.864314 101 39161ft 543kts
24-Mar-18 19:30 27.606730 -84.700655 101 39162ft 541kts
24-Mar-18 19:31 27.566208 -84.536646 101 39165ft 542kts
24-Mar-18 19:32 27.525594 -84.373170 101 39166ft 542kts
24-Mar-18 19:33 27.484667 -84.209292 102 39168ft 542kts
24-Mar-18 19:34 27.443688 -84.046095 102 39165ft 543kts
24-Mar-18 19:35 27.402485 -83.882905 102 39166ft 542kts
24-Mar-18 19:36 27.361001 -83.719470 103 39178ft 542kts
24-Mar-18 19:37 27.319456 -83.556657 103 39179ft 542kts
24-Mar-18 19:38 27.277749 -83.394062 103 39181ft 542kts
24-Mar-18 19:39 27.235749 -83.231178 103 39181ft 541kts
24-Mar-18 19:40 27.193924 -83.068911 103 39181ft 541kts
24-Mar-18 19:41 27.151371 -82.906289 103 39182ft 541kts
24-Mar-18 19:42 27.074681 -82.763575 139 39191ft 544kts
24-Mar-18 19:43 26.961600 -82.650915 136 39201ft 545kts
24-Mar-18 19:44 26.853937 -82.530954 136 39196ft 545kts
24-Mar-18 19:45 26.746728 -82.412426 136 38829ft 533kts
24-Mar-18 19:46 26.638120 -82.293338 136 36280ft 558kts
24-Mar-18 19:47 26.529238 -82.175722 137 34428ft 531kts
24-Mar-18 19:48 26.423721 -82.064040 137 32194ft 519kts
24-Mar-18 19:49 26.319934 -81.953673 137 29790ft 509kts
24-Mar-18 19:50 26.218599 -81.846771 137 27396ft 495kts
24-Mar-18 19:51 26.138045 -81.727445 113 25003ft 474kts
24-Mar-18 19:52 26.094008 -81.594560 106 22567ft 442kts
24-Mar-18 19:53 26.054298 -81.468925 107 20078ft 420kts
24-Mar-18 19:54 26.015677 -81.349703 107 17588ft 401kts
24-Mar-18 19:55 25.980639 -81.236115 101 15390ft 374kts
24-Mar-18 19:56 25.963783 -81.125883 97 13418ft 349kts
24-Mar-18 19:57 25.950873 -81.027529 97 12787ft 293kts
24-Mar-18 19:58 25.939758 -80.943388 98 11601ft 260kts
24-Mar-18 19:59 25.929495 -80.866033 97 10116ft 249kts
24-Mar-18 20:00 25.920288 -80.793842 96 9197ft 216kts
24-Mar-18 20:01 25.912065 -80.730210 97 8240ft 206kts
24-Mar-18 20:02 25.909216 -80.667095 88 7383ft 202kts
24-Mar-18 20:03 25.909661 -80.605668 88 6192ft 199kts
24-Mar-18 20:04 25.910558 -80.545752 88 5056ft 187kts
24-Mar-18 20:05 25.901334 -80.490865 124 3496ft 179kts
24-Mar-18 20:06 25.873186 -80.445983 123 2907ft 178kts
24-Mar-18 20:07 25.848501 -80.398534 119 1940ft 171kts
24-Mar-18 20:08 25.828062 -80.358548 119 1147ft 135kts
24-Mar-18 20:09 25.809672 -80.322575 119 443ft 134kts
24-Mar-18 20:10 25.793396 -80.290780 119 22ft 41kts
24-Mar-18 20:11 25.792689 -80.285998 30 21ft 0kts
24-Mar-18 20:12 25.792690 -80.285998 30 21ft 0kts
24-Mar-18 20:13 25.795248 -80.285769 356 21ft 22kts
24-Mar-18 20:14 25.798795 -80.288199 8 21ft 12kts
24-Mar-18 20:15 25.799573 -80.281900 87 21ft 19kts
24-Mar-18 20:16 25.798025 -80.279426 176 21ft 0kts
24-Mar-18 20:17 25.797851 -80.279414 176 21ft 0kts
24-Mar-18 20:18 25.797851 -80.279414 176 21ft 0kts
24-Mar-18 20:19 25.797851 -80.279414 176 21ft 0kts
24-Mar-18 20:20 25.797851 -80.279414 176 21ft 0kts
24-Mar-18 20:21 25.797851 -80.279414 176 21ft 0kts
24-Mar-18 20:22 25.797851 -80.279414 176 21ft 0kts
24-Mar-18 20:23 25.797851 -80.279414 176 21ft 0kts
24-Mar-18 20:24 25.797851 -80.279414 176 21ft 0kts
24-Mar-18 20:25 25.797851 -80.279414 176 21ft 0kts
24-Mar-18 20:26 25.797851 -80.279414 176 21ft 0kts

Navigation Log

Ident Type
Flight plan parsing failed, navigation log unavailable